createdAt,value
2023-03-31T00:00:58.069Z,10.60
2023-03-31T00:06:01.953Z,9.88
2023-03-31T00:11:08.026Z,10.10
2023-03-31T00:16:12.300Z,10.82
2023-03-31T00:21:24.902Z,10.88
2023-03-31T00:26:28.485Z,10.60
2023-03-31T00:31:33.193Z,11.93
2023-03-31T00:36:36.904Z,10.52
2023-03-31T00:41:40.322Z,12.43
2023-03-31T00:46:49.124Z,11.57
2023-03-31T00:51:53.950Z,9.45
2023-03-31T00:57:03.453Z,10.13
2023-03-31T01:02:08.384Z,10.57
2023-03-31T01:07:17.056Z,9.57
2023-03-31T01:12:20.434Z,10.27
2023-03-31T01:17:25.304Z,8.77
2023-03-31T01:23:00.124Z,8.10
2023-03-31T01:28:09.423Z,8.38
2023-03-31T01:33:54.761Z,9.63
2023-03-31T01:39:16.120Z,10.15
2023-03-31T01:44:24.739Z,10.95
2023-03-31T01:49:36.332Z,10.73
2023-03-31T01:54:43.787Z,10.30
2023-03-31T01:59:54.144Z,11.90
2023-03-31T02:05:01.698Z,16.03
2023-03-31T02:10:07.410Z,19.50
2023-03-31T02:15:15.965Z,20.83
2023-03-31T02:20:20.760Z,21.13
2023-03-31T02:25:26.203Z,20.63
2023-03-31T02:30:36.389Z,19.17
2023-03-31T02:35:39.415Z,18.47
2023-03-31T02:40:42.459Z,18.40
2023-03-31T02:45:49.432Z,17.88
2023-03-31T02:51:02.921Z,17.13
2023-03-31T02:56:21.436Z,19.60
2023-03-31T03:01:36.970Z,21.88
2023-03-31T03:06:44.041Z,21.10
2023-03-31T03:11:59.529Z,17.55
2023-03-31T03:17:07.915Z,17.50
2023-03-31T03:22:11.086Z,19.83
2023-03-31T03:27:13.958Z,18.60
2023-03-31T03:32:18.195Z,17.17
2023-03-31T03:37:21.053Z,16.53
2023-03-31T03:42:23.876Z,15.17
2023-03-31T03:47:28.103Z,16.67
2023-03-31T03:52:31.096Z,17.52
2023-03-31T03:57:33.918Z,18.38
2023-03-31T04:02:38.251Z,17.48
2023-03-31T04:08:06.236Z,15.38
2023-03-31T04:13:09.035Z,14.68
2023-03-31T04:18:18.745Z,16.83
2023-03-31T04:23:26.511Z,16.08
2023-03-31T04:28:35.123Z,15.43
2023-03-31T04:33:39.943Z,17.42
2023-03-31T04:38:46.956Z,17.67
2023-03-31T04:43:49.768Z,14.50
2023-03-31T04:48:54.063Z,14.40
2023-03-31T04:53:56.948Z,11.10
2023-03-31T04:58:59.772Z,10.98
2023-03-31T05:04:04.560Z,10.35
2023-03-31T05:09:09.622Z,11.38
2023-03-31T05:14:12.533Z,13.55
2023-03-31T05:19:18.259Z,15.38
2023-03-31T05:24:21.245Z,15.60
2023-03-31T05:29:24.808Z,18.17
2023-03-31T05:34:29.140Z,17.90
2023-03-31T05:39:33.123Z,17.40
2023-03-31T05:44:36.073Z,18.37
2023-03-31T05:49:40.265Z,17.83
2023-03-31T05:54:44.306Z,18.13
2023-03-31T05:59:47.155Z,19.80
2023-03-31T06:04:52.124Z,19.50
2023-03-31T06:09:55.256Z,16.77
2023-03-31T06:14:58.067Z,16.80
2023-03-31T06:20:07.647Z,17.60
2023-03-31T06:25:19.071Z,16.53
2023-03-31T06:30:22.027Z,17.17
2023-03-31T06:35:26.462Z,17.27
2023-03-31T06:40:29.294Z,16.77
2023-03-31T06:45:32.198Z,16.45
2023-03-31T06:50:38.734Z,17.52
2023-03-31T06:55:41.585Z,16.67
2023-03-31T07:00:46.124Z,16.50
2023-03-31T07:05:51.400Z,15.55
2023-03-31T07:10:57.665Z,15.25
2023-03-31T07:16:00.621Z,15.80
2023-03-31T07:21:09.655Z,15.50
2023-03-31T07:26:13.297Z,14.15
2023-03-31T07:31:16.643Z,15.57
2023-03-31T07:36:21.755Z,15.43
2023-03-31T07:41:26.345Z,13.88
2023-03-31T07:46:30.389Z,13.70
2023-03-31T07:51:35.200Z,13.07
2023-03-31T07:56:38.186Z,14.43
2023-03-31T08:01:41.197Z,14.15
2023-03-31T08:06:45.884Z,15.20
2023-03-31T08:11:48.836Z,16.27
2023-03-31T08:16:53.353Z,15.90
2023-03-31T08:21:57.603Z,19.08
2023-03-31T08:27:00.393Z,19.47
2023-03-31T08:32:03.407Z,20.47
2023-03-31T08:37:07.763Z,20.52
2023-03-31T08:42:16.633Z,19.98
2023-03-31T08:47:21.531Z,20.73
2023-03-31T08:52:28.344Z,20.27
2023-03-31T08:57:34.653Z,19.95
2023-03-31T09:02:48.626Z,19.17
2023-03-31T09:08:00.360Z,18.23
2023-03-31T09:13:12.442Z,18.05
2023-03-31T09:18:19.061Z,17.90
2023-03-31T09:23:27.934Z,15.52
2023-03-31T09:28:32.851Z,15.63
2023-03-31T09:33:35.761Z,15.60
2023-03-31T09:38:41.043Z,14.90
2023-03-31T09:43:46.424Z,12.75
2023-03-31T09:48:56.216Z,13.10
2023-03-31T09:54:04.241Z,12.77
2023-03-31T09:59:07.117Z,14.93
2023-03-31T10:04:10.444Z,13.93
2023-03-31T10:09:14.916Z,13.85
2023-03-31T10:14:17.784Z,11.93
2023-03-31T10:19:23.065Z,12.18
2023-03-31T10:24:28.728Z,11.07
2023-03-31T10:29:33.158Z,12.50
2023-03-31T10:34:37.196Z,11.98
2023-03-31T10:39:41.575Z,12.55
2023-03-31T10:44:44.440Z,14.07
2023-03-31T10:49:50.656Z,12.48
2023-03-31T10:54:59.371Z,11.57
2023-03-31T11:00:13.448Z,14.27
2023-03-31T11:05:18.362Z,13.03
2023-03-31T11:10:35.881Z,12.55
2023-03-31T11:15:42.757Z,11.68
2023-03-31T11:20:53.710Z,10.50
2023-03-31T11:26:02.187Z,10.45
2023-03-31T11:31:18.030Z,11.68
2023-03-31T11:36:31.070Z,8.35
2023-03-31T11:41:38.779Z,8.18
2023-03-31T11:46:45.355Z,7.68
2023-03-31T11:51:53.072Z,8.73
2023-03-31T11:56:57.839Z,8.47
2023-03-31T12:02:06.272Z,9.20
2023-03-31T12:07:19.050Z,8.70
2023-03-31T12:12:24.285Z,7.43
2023-03-31T12:17:29.242Z,6.07
2023-03-31T12:22:34.405Z,5.18
2023-03-31T12:27:41.749Z,5.80
2023-03-31T12:32:47.729Z,5.63
2023-03-31T12:38:05.319Z,5.53
2023-03-31T12:43:36.360Z,6.32
2023-03-31T12:48:54.163Z,6.93
2023-03-31T12:54:08.869Z,12.33
2023-03-31T12:59:26.826Z,7.20
2023-03-31T13:04:30.195Z,6.18
2023-03-31T13:09:52.944Z,5.63
2023-03-31T13:20:32.255Z,26.33
2023-03-31T13:25:46.164Z,8.38
2023-03-31T13:30:52.568Z,6.03
2023-03-31T13:36:02.936Z,5.93
2023-03-31T13:41:14.973Z,7.25
2023-03-31T13:46:34.525Z,7.57
2023-03-31T13:51:47.047Z,8.93
2023-03-31T13:56:59.909Z,9.52
2023-03-31T14:02:18.520Z,9.00
2023-03-31T14:07:22.751Z,9.15
2023-03-31T14:12:32.481Z,8.98
2023-03-31T14:17:38.664Z,9.68
2023-03-31T14:22:48.775Z,9.48
2023-03-31T14:28:00.988Z,10.50
2023-03-31T14:33:14.903Z,9.10
2023-03-31T14:38:20.045Z,9.23
2023-03-31T14:43:24.321Z,8.77
2023-03-31T14:48:29.942Z,8.60
2023-03-31T14:53:32.763Z,8.77
2023-03-31T14:58:37.382Z,4.40
2023-03-31T15:03:42.585Z,4.68
2023-03-31T15:08:45.844Z,3.47
2023-03-31T15:14:03.316Z,4.88
2023-03-31T15:19:13.768Z,4.40
2023-03-31T15:24:16.687Z,4.30
2023-03-31T15:29:21.993Z,4.82
2023-03-31T15:34:28.885Z,5.00
2023-03-31T15:39:33.598Z,8.05
2023-03-31T15:44:39.585Z,8.98
2023-03-31T15:49:51.215Z,10.23
2023-03-31T15:54:54.209Z,8.03
2023-03-31T15:59:57.906Z,8.13
2023-03-31T16:05:06.098Z,8.27
2023-03-31T16:10:18.650Z,9.85
2023-03-31T16:15:25.091Z,8.82
2023-03-31T16:20:37.111Z,9.17
2023-03-31T16:25:41.704Z,9.15
2023-03-31T16:30:46.157Z,8.80
2023-03-31T16:35:53.422Z,10.05
2023-03-31T16:40:58.159Z,10.10
2023-03-31T16:46:03.424Z,9.93
2023-03-31T16:51:07.861Z,11.00
2023-03-31T16:56:11.892Z,11.05
2023-03-31T17:01:15.024Z,11.07
2023-03-31T17:06:19.359Z,9.75
2023-03-31T17:11:22.746Z,12.57
2023-03-31T17:16:32.958Z,13.73
2023-03-31T17:21:49.595Z,12.77
2023-03-31T17:26:52.532Z,14.10
2023-03-31T17:31:55.664Z,12.70
2023-03-31T17:37:00.142Z,13.87
2023-03-31T17:42:03.922Z,12.82
2023-03-31T17:47:06.857Z,14.00
2023-03-31T17:52:11.682Z,13.48
2023-03-31T17:57:14.549Z,14.23
2023-03-31T18:02:17.573Z,15.20
2023-03-31T18:07:23.223Z,15.75
2023-03-31T18:12:26.286Z,16.13
2023-03-31T18:17:29.934Z,16.92
2023-03-31T18:22:37.025Z,16.13
2023-03-31T18:27:39.836Z,19.52
2023-03-31T18:32:43.586Z,14.18
2023-03-31T18:37:47.872Z,14.90
2023-03-31T18:42:51.322Z,14.30
2023-03-31T18:47:54.625Z,14.97
2023-03-31T18:52:58.861Z,14.63
2023-03-31T18:58:01.826Z,12.25
2023-03-31T19:03:04.825Z,14.97
2023-03-31T19:08:09.236Z,16.07
2023-03-31T19:13:14.574Z,7.70
2023-03-31T19:18:17.399Z,7.50
2023-03-31T19:23:21.669Z,10.63
2023-03-31T19:28:25.708Z,15.25
2023-03-31T19:33:28.660Z,14.43
2023-03-31T19:38:36.436Z,14.18
2023-03-31T19:43:39.504Z,6.22
2023-03-31T19:48:42.489Z,7.50
2023-03-31T19:53:47.153Z,8.65
2023-03-31T19:58:50.323Z,8.77
2023-03-31T20:03:53.732Z,9.02
2023-03-31T20:08:59.435Z,6.95
2023-03-31T20:14:02.699Z,9.60
2023-03-31T20:19:06.960Z,8.30
2023-03-31T20:24:16.312Z,10.25
2023-03-31T20:29:19.179Z,12.38
2023-03-31T20:34:22.759Z,14.52
2023-03-31T20:39:27.125Z,13.70
2023-03-31T20:44:30.051Z,15.82
2023-03-31T20:49:32.861Z,15.90
2023-03-31T20:54:37.428Z,17.27
2023-03-31T20:59:40.501Z,16.23
2023-03-31T21:04:43.392Z,19.02
2023-03-31T21:09:47.652Z,19.73
2023-03-31T21:14:50.540Z,18.88
2023-03-31T21:19:53.420Z,18.42
2023-03-31T21:24:57.696Z,20.42
2023-03-31T21:30:00.574Z,23.52
2023-03-31T21:35:03.472Z,26.80
2023-03-31T21:40:09.357Z,25.85
2023-03-31T21:45:13.482Z,25.02
2023-03-31T21:50:16.686Z,25.50
2023-03-31T21:55:20.897Z,27.17
2023-03-31T22:00:23.825Z,36.67
2023-03-31T22:05:27.231Z,43.58
2023-03-31T22:10:31.531Z,41.90
2023-03-31T22:15:34.569Z,38.88
2023-03-31T22:20:37.778Z,25.37
2023-03-31T22:25:42.165Z,26.33
2023-03-31T22:30:45.094Z,36.42
2023-03-31T22:35:49.277Z,35.88
2023-03-31T22:40:53.685Z,38.77
2023-03-31T22:45:56.638Z,44.75
2023-03-31T22:50:59.677Z,40.45
2023-03-31T22:56:09.929Z,41.20
2023-03-31T23:01:15.742Z,37.90
2023-03-31T23:06:18.946Z,35.97
2023-03-31T23:11:23.077Z,34.27
2023-03-31T23:16:27.227Z,38.22
2023-03-31T23:21:30.717Z,39.15
2023-03-31T23:26:35.684Z,37.00
2023-03-31T23:31:38.610Z,36.45
2023-03-31T23:36:41.565Z,32.38
2023-03-31T23:41:45.814Z,38.85
2023-03-31T23:46:48.636Z,34.55
2023-03-31T23:51:51.807Z,32.28
2023-03-31T23:56:56.347Z,32.22
